Kriti Rock — SVBJ2 — position and weather

sailwx.info

Track history (hours):
 
Tides and Currents Weather Stations Pressure Air Temp Water Temp Dewpoint Dewpoint Depression Visibility Wind Speed Wind Dir Waves Ship Positions

Kriti Rock

Last reported at 2017-Oct-20 02:28 UTC. Time now 2017-Oct-20 08:48 UTC.
Position N 43°17' E 033°47'.

Length 180 m; draft 8 m.

Type: Tanker. MMSI: 241130000.

Date/timePositionNaut miles runAvg speedWind from/ knotsBaromVisibWave heightAir tempDewpointWater temp
2017-Oct-20 02:28N 43°17' E 033°47'612.9
2017-Oct-20 01:58N 43°21' E 033°54'2112.6
2017-Oct-20 00:20N 43°30' E 034°20'1312.6
2017-Oct-19 23:16N 43°36' E 034°36'312.6
2017-Oct-19 23:00N 43°38' E 034°40'  
2017-Oct-10 19:47N 41°02' E 028°60'311.1
2017-Oct-10 19:30N 40°58' E 028°60'5 7.9
2017-Oct-10 18:50N 40°55' E 028°55'3 0.2
2017-Oct-10 06:07N 40°56' E 028°51'1 5.8
2017-Oct-10 05:54N 40°55' E 028°50'3 9.0
2017-Oct-10 05:30N 40°51' E 028°50'  
Track history (hours):
 
Tides and Currents Weather Stations Pressure Air Temp Water Temp Dewpoint Dewpoint Depression Visibility Wind Speed Wind Dir Waves Ship Positions

Kriti Rock

Last reported at 2017-Oct-20 02:28 UTC. Time now 2017-Oct-20 08:48 UTC.
Position N 43°17' E 033°47'.

Length 180 m; draft 8 m.

Type: Tanker. MMSI: 241130000.

Date/timePositionNaut miles runAvg speedWind from/ knotsBaromVisibWave heightAir tempDewpointWater temp
2017-Oct-20 02:28N 43°17' E 033°47'612.9
2017-Oct-20 01:58N 43°21' E 033°54'2112.6
2017-Oct-20 00:20N 43°30' E 034°20'1312.6
2017-Oct-19 23:16N 43°36' E 034°36'312.6
2017-Oct-19 23:00N 43°38' E 034°40'  
2017-Oct-10 19:47N 41°02' E 028°60'311.1
2017-Oct-10 19:30N 40°58' E 028°60'5 7.9
2017-Oct-10 18:50N 40°55' E 028°55'3 0.2
2017-Oct-10 06:07N 40°56' E 028°51'1 5.8
2017-Oct-10 05:54N 40°55' E 028°50'3 9.0
2017-Oct-10 05:30N 40°51' E 028°50'  

Dump ship's entire track history